createdAt,value
2019-04-07T20:15:06.581Z,56.29
2019-04-07T20:17:32.426Z,56.20
2019-04-07T20:20:17.451Z,56.68
2019-04-07T20:23:04.369Z,56.39
2019-04-07T20:25:52.751Z,56.74
2019-04-07T20:28:30.386Z,57.12
2019-04-07T20:30:59.997Z,56.89
2019-04-07T20:33:34.310Z,56.61
2019-04-07T20:36:15.038Z,55.94
2019-04-07T20:38:46.499Z,55.52
2019-04-07T20:41:19.530Z,56.00
2019-04-07T20:43:59.049Z,55.97
2019-04-07T20:46:46.096Z,55.87
2019-04-07T20:49:40.247Z,55.71
2019-04-07T20:52:14.210Z,55.87
2019-04-07T20:54:49.676Z,56.42
2019-04-07T20:57:40.870Z,56.60
2019-04-07T21:00:38.226Z,57.36
2019-04-07T21:03:29.988Z,57.77
2019-04-07T21:06:06.665Z,58.17
2019-04-07T21:08:40.305Z,57.89
2019-04-07T21:11:13.229Z,57.94
2019-04-07T21:13:54.614Z,58.43
2019-04-07T21:16:45.153Z,58.38
2019-04-07T21:19:43.166Z,58.10
2019-04-07T21:22:20.917Z,58.64
2019-04-07T21:25:02.785Z,58.12
2019-04-07T21:27:40.835Z,58.36
2019-04-07T21:30:16.161Z,58.19
2019-04-07T21:33:09.276Z,58.46
2019-04-07T21:35:39.320Z,58.31
2019-04-07T21:38:24.506Z,58.14
2019-04-07T21:41:14.176Z,58.38
2019-04-07T21:43:46.979Z,59.45
2019-04-07T21:46:22.636Z,60.02
2019-04-07T21:48:57.979Z,60.18
2019-04-07T21:51:27.864Z,60.55
2019-04-07T21:54:04.016Z,60.20
2019-04-07T21:56:43.106Z,60.69
2019-04-07T21:59:31.434Z,60.48
2019-04-07T22:02:13.682Z,60.38
2019-04-07T22:04:54.545Z,60.88
2019-04-07T22:07:39.743Z,60.62
2019-04-07T22:10:13.686Z,61.01
2019-04-07T22:12:42.395Z,61.05
2019-04-07T22:15:13.914Z,61.17
2019-04-07T22:17:45.786Z,61.08
2019-04-07T22:20:17.616Z,61.16
2019-04-07T22:22:47.122Z,60.90
2019-04-07T22:25:18.843Z,61.17
2019-04-07T22:27:46.944Z,61.35
2019-04-07T22:30:16.452Z,61.76
2019-04-07T22:32:44.868Z,61.53
2019-04-07T22:35:14.757Z,61.57
2019-04-07T22:37:44.082Z,61.78
2019-04-07T22:40:17.126Z,61.50
2019-04-07T22:42:47.602Z,61.69
2019-04-07T22:45:16.124Z,61.72
2019-04-07T22:47:44.712Z,61.82
2019-04-07T22:50:13.272Z,62.55
2019-04-07T22:52:41.896Z,62.24
2019-04-07T22:55:10.810Z,62.33
2019-04-07T22:57:39.224Z,62.87
2019-04-07T23:00:10.839Z,63.05
2019-04-07T23:02:42.925Z,64.66
2019-04-07T23:05:11.463Z,64.97
2019-04-07T23:07:40.936Z,64.42
2019-04-07T23:10:13.257Z,64.10
2019-04-07T23:12:44.458Z,64.10
2019-04-07T23:15:14.345Z,64.25
2019-04-07T23:17:43.009Z,64.42
2019-04-07T23:20:13.888Z,64.35
2019-04-07T23:22:44.728Z,64.69
2019-04-07T23:25:15.310Z,64.71
2019-04-07T23:27:46.256Z,65.02
2019-04-07T23:30:17.325Z,65.39
2019-04-07T23:32:45.856Z,65.36
2019-04-07T23:35:18.342Z,65.19
2019-04-07T23:37:46.684Z,65.06
2019-04-07T23:40:15.187Z,65.22
2019-04-07T23:42:44.575Z,65.67
2019-04-07T23:45:14.413Z,65.88
2019-04-07T23:47:42.821Z,66.00
2019-04-07T23:50:11.500Z,65.50
2019-04-07T23:52:47.517Z,66.19
2019-04-07T23:55:17.158Z,65.77
2019-04-07T23:57:46.498Z,65.72
